Bert Mooney Airport Butte US
ICAO: KBTM
IATA: BTM
Category: Medium
Scheduled Services: Yes

Elevation: 5550 ft
TransAlt. 18000 ft.

Airport Communications:
ASOS:135.175
SALT LAKE CITY CNTR:132.4
GREAT FALLS RDO:122.2
CTAF/UNICOM:123

KBTM Zoom In..

Runways:

(A) RW 12 length 5100 ft width 75 ft
---- / hdg 113

(B) RW 15 length 9001 ft width 150 ft
ILS 110.90 / hdg 151

(C) RW 30 length 5100 ft width 75 ft
---- / hdg 293

(D) RW 33 length 9001 ft width 150 ft
---- / hdg 331

Location; KBTM
Day. 20 / Time. 19.53 Zulu
* Altimeter: 30.09
* Temperature: 29° c. 84.2°f.
* Wind from: 320° Speed 09 kn with Gusts up to 17 kn.
Dewpoint: -04° c.
Visibility: 10 Statute Miles.
Clouds: Clear (automated report).

KBTM 201953Z AUTO 32009G17KT 10SM CLR 29/M04 A3009 RMK AO2 SLP130 T02891039


Wind From 320°
Speed 09 kn.

 
 
jpsmedia.com for Web Design worldairports.se 2018   terms of use